• Join FlightAware (Why Join?)
  • Login
  • US Flag 
08:33AM EDT


 

Airport Tracker/Info


-or-


 

Live Flight TrackerFlight Track Log ✈ RPA4911 ✈ 04-Jul-2013 ✈ KALB - KEWR

Flight Track Log - Related Links

Times and Time Zones

All times are in EDT time to prevent confusion due to time zone crossing. See the RPA4911 flight status page for this flight to view local times or setup timezone preferences in your user account.

Time Position Orientation Groundspeed Altitude Reporting Facility
EDT Latitude Longitude Course Direction KTS MPH feet Rate Location/Type
05:57PM 42.7319 -73.8081 198° South 150 173 1,400  Level Boston Center
05:58PM 42.6689 -73.8436 203° Southwest 222 255 5,000 2,520 Climbing Boston Center
05:59PM 42.6311 -73.8567 194° South 230 265 6,700 2,160 Climbing Boston Center
06:00PM 42.4715 -73.8529 196° South  Level Estimated
06:00PM 42.5683 -73.8864 199° South 237 273 8,900  Level Boston Center
06:01PM 42.3947 -73.9249 215° Southwest  Level FlightAware Approximate
06:01PM 42.4928 -73.9183 197° South 261 300 10,500  Level Boston Center
06:02PM 42.3019 -73.9385 198° South  Level Estimated
06:02PM 42.4236 -73.9475 197° South 275 316 11,900  Level Boston Center
06:03PM 42.3419 -73.9878 200° South 287 330 11,900  Level Boston Center
06:04PM 42.2706 -74.0169 197° South 292 336 11,900  Level Boston Center
06:05PM 42.1825 -74.0567 198° South 303 349 11,900  Level Boston Center
06:06PM 42.1008 -74.0939 199° South 309 356 12,000  Climbing Boston Center
06:07PM 42.0189 -74.1308 199° South 309 356 12,000  Level Boston Center
06:08PM 41.9433 -74.1622 197° South 309 356 12,000 -120 Level Boston Center
06:09PM 41.8531 -74.2017 198° South 314 361 11,800 -600 Descending Boston Center
06:10PM 41.7775 -74.2328 197° South 321 369 10,900 -1,020 Descending Boston Center
06:11PM 41.6958 -74.2667 197° South 306 352 9,800 -1,020 Descending Boston Center
06:12PM 41.6328 -74.2956 199° South 281 323 8,900 -1,020 Descending Boston Center
06:13PM 41.5572 -74.3319 200° South 269 310 7,800 -960 Descending Boston Center
06:14PM 41.4922 -74.3578 197° South 269 310 7,000 -360 Descending Boston Center
06:16PM 41.3667 -74.4000 194° South 247 284 7,000  Level New York TRACON
06:17PM 41.3000 -74.4333 201° Southwest 256 295 7,000  Level New York TRACON
06:18PM 41.2333 -74.4167 169° South 278 320 7,000 -420 Level New York TRACON
06:19PM 41.1833 -74.3667 143° Southeast 274 315 6,200 -900 Descending New York TRACON
06:20PM 41.1167 -74.3000 143° Southeast 269 310 5,200 -600 Descending New York TRACON
06:21PM 41.0667 -74.2500 143° Southeast 256 295 5,000 -420 Descending New York TRACON
06:22PM 40.9833 -74.1833 149° Southeast 268 308 4,400 -720 Descending New York TRACON
06:23PM 40.9333 -74.1333 143° Southeast 254 292 3,600 -720 Descending New York TRACON
06:24PM 40.8833 -74.0833 143° Southeast 201 231 3,000 -360 Descending New York TRACON
06:25PM 40.8333 -74.0667 166° South 187 215 2,900 -120 Descending New York TRACON